createdAt,value
2018-04-13T00:01:36.439Z,65.30
2018-04-13T00:03:44.583Z,66.37
2018-04-13T00:05:50.903Z,68.40
2018-04-13T00:07:57.111Z,64.37
2018-04-13T00:10:05.294Z,63.07
2018-04-13T00:12:11.621Z,58.17
2018-04-13T00:14:15.778Z,56.90
2018-04-13T00:16:21.764Z,58.73
2018-04-13T00:18:27.963Z,58.63
2018-04-13T00:20:36.469Z,56.43
2018-04-13T00:22:44.884Z,54.40
2018-04-13T00:24:51.248Z,59.50
2018-04-13T00:26:57.583Z,54.90
2018-04-13T00:29:07.985Z,55.77
2018-04-13T00:31:12.121Z,55.87
2018-04-13T00:33:22.066Z,54.70
2018-04-13T00:35:32.081Z,60.53
2018-04-13T00:37:45.098Z,55.90
2018-04-13T00:39:49.182Z,56.93
2018-04-13T00:42:01.508Z,51.70
2018-04-13T00:44:14.414Z,58.10
2018-04-13T00:46:20.675Z,52.77
2018-04-13T00:48:29.090Z,54.83
2018-04-13T00:50:35.161Z,54.90
2018-04-13T00:52:45.917Z,55.20
2018-04-13T00:54:56.640Z,54.50
2018-04-13T00:57:09.681Z,56.50
2018-04-13T00:59:22.508Z,56.00
2018-04-13T01:01:31.247Z,55.83
2018-04-13T01:03:37.400Z,55.90
2018-04-13T01:05:47.784Z,54.27
2018-04-13T01:07:56.159Z,52.40
2018-04-13T01:10:06.911Z,54.23
2018-04-13T01:12:13.296Z,57.67
2018-04-13T01:14:19.563Z,56.40
2018-04-13T01:16:25.683Z,55.03
2018-04-13T01:18:34.252Z,55.40
2018-04-13T01:20:42.777Z,52.90
2018-04-13T01:22:55.360Z,56.47
2018-04-13T01:25:04.434Z,54.30
2018-04-13T01:27:15.245Z,52.67
2018-04-13T01:29:21.484Z,50.63
2018-04-13T01:31:29.794Z,51.33
2018-04-13T01:33:33.937Z,51.87
2018-04-13T01:35:42.164Z,53.00
2018-04-13T01:37:50.510Z,53.20
2018-04-13T01:39:56.890Z,51.73
2018-04-13T01:42:03.236Z,50.70
2018-04-13T01:44:11.661Z,47.27
2018-04-13T01:46:18.092Z,45.40
2018-04-13T01:48:26.483Z,41.03
2018-04-13T01:50:35.023Z,41.90
2018-04-13T01:52:47.634Z,43.90
2018-04-13T01:55:00.172Z,44.30
2018-04-13T01:57:04.247Z,42.50
2018-04-13T01:59:10.508Z,40.93
2018-04-13T02:01:16.736Z,39.57
2018-04-13T02:03:29.386Z,43.63
2018-04-13T02:05:39.842Z,41.60
2018-04-13T02:07:48.333Z,43.90
2018-04-13T02:09:52.391Z,42.93
2018-04-13T02:11:56.534Z,43.30
2018-04-13T02:14:04.546Z,43.70
2018-04-13T02:16:08.605Z,44.60
2018-04-13T02:18:19.097Z,44.23
2018-04-13T02:20:25.292Z,41.77
2018-04-13T02:22:33.489Z,43.40
2018-04-13T02:24:39.439Z,41.27
2018-04-13T02:26:45.533Z,45.70
2018-04-13T02:28:54.036Z,45.63
2018-04-13T02:30:58.114Z,48.00
2018-04-13T02:33:08.649Z,52.83
2018-04-13T02:35:15.033Z,66.00
2018-04-13T02:37:21.298Z,55.27
2018-04-13T02:39:33.933Z,53.20
2018-04-13T02:41:44.280Z,53.33
2018-04-13T02:43:52.841Z,51.10
2018-04-13T02:46:05.520Z,50.53
2018-04-13T02:48:11.787Z,48.70
2018-04-13T02:50:19.095Z,51.53
2018-04-13T02:52:37.109Z,50.80
2018-04-13T02:54:45.596Z,57.10
2018-04-13T02:56:56.157Z,52.20
2018-04-13T02:59:06.946Z,46.77
2018-04-13T03:01:11.136Z,49.10
2018-04-13T03:03:17.404Z,54.00
2018-04-13T03:05:27.960Z,52.50
2018-04-13T03:07:34.313Z,51.00
2018-04-13T03:09:38.396Z,47.13
2018-04-13T03:11:51.680Z,57.20
2018-04-13T03:13:55.901Z,46.53
2018-04-13T03:16:00.016Z,48.17
2018-04-13T03:18:06.341Z,44.93
2018-04-13T03:20:10.560Z,44.70
2018-04-13T03:22:20.016Z,42.40
2018-04-13T03:24:26.327Z,45.20
2018-04-13T03:26:33.764Z,41.43
2018-04-13T03:28:39.821Z,40.70
2018-04-13T03:30:50.198Z,44.73
2018-04-13T03:33:01.040Z,44.00
2018-04-13T03:35:07.386Z,44.63
2018-04-13T03:37:15.948Z,48.70
2018-04-13T03:39:24.329Z,49.60
2018-04-13T03:41:30.636Z,52.20
2018-04-13T03:43:43.130Z,53.83
2018-04-13T03:45:49.211Z,48.60
2018-04-13T03:47:55.422Z,51.20
2018-04-13T03:50:04.038Z,51.27
2018-04-13T03:52:12.671Z,55.27
2018-04-13T03:54:23.389Z,54.37
2018-04-13T03:56:33.719Z,58.93
2018-04-13T03:58:42.211Z,59.30
2018-04-13T04:00:50.455Z,55.13
2018-04-13T04:02:56.441Z,61.47
2018-04-13T04:05:08.367Z,54.07
2018-04-13T04:07:14.628Z,46.40
2018-04-13T04:09:21.031Z,45.00
2018-04-13T04:11:25.120Z,42.30
2018-04-13T04:13:31.169Z,38.33
2018-04-13T04:15:39.763Z,36.53
2018-04-13T04:17:43.883Z,45.97
2018-04-13T04:19:57.860Z,36.20
2018-04-13T04:22:12.376Z,40.43
2018-04-13T04:24:26.892Z,40.57
2018-04-13T04:26:40.630Z,40.97
2018-04-13T04:28:44.880Z,39.20
2018-04-13T04:30:51.189Z,41.27
2018-04-13T04:32:57.534Z,44.37
2018-04-13T04:35:06.044Z,43.90
2018-04-13T04:37:12.125Z,42.30
2018-04-13T04:39:20.718Z,44.00
2018-04-13T04:41:26.732Z,42.50
2018-04-13T04:43:30.822Z,54.80
2018-04-13T04:45:47.836Z,43.30
2018-04-13T04:47:54.149Z,45.37
2018-04-13T04:50:00.437Z,42.47
2018-04-13T04:52:11.085Z,45.67
2018-04-13T04:54:17.284Z,45.10
2018-04-13T04:56:27.696Z,53.80
2018-04-13T04:58:38.578Z,48.93
2018-04-13T05:00:47.025Z,48.10
2018-04-13T05:02:53.350Z,46.97
2018-04-13T05:05:01.953Z,45.70
2018-04-13T05:07:17.161Z,54.37
2018-04-13T05:09:25.585Z,45.67
2018-04-13T05:11:31.867Z,45.03
2018-04-13T05:13:36.016Z,45.60
2018-04-13T05:15:40.251Z,47.37
2018-04-13T05:17:44.361Z,46.30
2018-04-13T05:19:48.659Z,43.70
2018-04-13T05:21:56.634Z,46.47
2018-04-13T05:24:00.766Z,48.17
2018-04-13T05:26:08.899Z,46.80
2018-04-13T05:28:15.186Z,47.40
2018-04-13T05:30:23.555Z,42.73
2018-04-13T05:32:30.948Z,43.93
2018-04-13T05:34:35.033Z,39.70
2018-04-13T05:36:43.610Z,40.97
2018-04-13T05:38:49.873Z,48.60
2018-04-13T05:40:56.188Z,43.23
2018-04-13T05:43:00.314Z,42.50
2018-04-13T05:45:04.431Z,41.87
2018-04-13T05:47:10.812Z,42.57
2018-04-13T05:49:17.181Z,41.57
2018-04-13T05:51:23.295Z,39.57
2018-04-13T05:53:31.566Z,37.90
2018-04-13T05:55:35.693Z,37.40
2018-04-13T05:57:39.792Z,37.33
2018-04-13T05:59:43.919Z,42.07
2018-04-13T06:01:50.011Z,38.53
2018-04-13T06:04:00.344Z,36.13
2018-04-13T06:06:06.644Z,35.80
2018-04-13T06:08:10.750Z,39.30
2018-04-13T06:10:16.461Z,39.87
2018-04-13T06:12:22.684Z,38.30
2018-04-13T06:14:28.718Z,35.40
2018-04-13T06:16:32.874Z,35.83
2018-04-13T06:18:38.980Z,33.93
2018-04-13T06:20:47.431Z,34.03
2018-04-13T06:22:52.958Z,32.70
2018-04-13T06:25:02.373Z,32.70
2018-04-13T06:27:06.523Z,33.63
2018-04-13T06:29:12.781Z,33.53
2018-04-13T06:31:17.057Z,33.80
2018-04-13T06:33:21.380Z,32.07
2018-04-13T06:35:25.761Z,32.37
2018-04-13T06:37:30.084Z,33.00
2018-04-13T06:39:34.411Z,33.20
2018-04-13T06:41:38.796Z,36.80
2018-04-13T06:43:43.127Z,32.40
2018-04-13T06:45:47.522Z,34.17
2018-04-13T06:47:51.871Z,32.67
2018-04-13T06:49:56.212Z,36.60
2018-04-13T06:52:00.536Z,36.33
2018-04-13T06:54:04.869Z,36.50
2018-04-13T06:56:09.217Z,40.47
2018-04-13T06:58:13.541Z,39.70
2018-04-13T07:00:17.904Z,38.60
2018-04-13T07:02:22.224Z,38.80
2018-04-13T07:04:26.598Z,36.07
2018-04-13T07:06:30.936Z,36.73
2018-04-13T07:08:35.334Z,36.43
2018-04-13T07:10:39.623Z,37.00
2018-04-13T07:12:43.929Z,35.43
2018-04-13T07:14:48.216Z,35.20
2018-04-13T07:16:52.508Z,36.30
2018-04-13T07:18:56.814Z,36.33
2018-04-13T07:21:01.116Z,33.10
2018-04-13T07:23:05.348Z,34.43
2018-04-13T07:25:09.598Z,33.80
2018-04-13T07:27:13.825Z,35.40
2018-04-13T07:29:18.103Z,33.93
2018-04-13T07:31:22.423Z,34.10
2018-04-13T07:33:26.827Z,37.90
2018-04-13T07:35:31.159Z,34.70
2018-04-13T07:37:35.508Z,35.53
2018-04-13T07:39:40.026Z,37.07
2018-04-13T07:41:44.221Z,36.60
2018-04-13T07:43:48.551Z,37.33
2018-04-13T07:45:53.825Z,35.27
2018-04-13T07:47:58.210Z,39.80
2018-04-13T07:50:02.546Z,37.47
2018-04-13T07:52:06.979Z,37.10
2018-04-13T07:54:11.291Z,37.87
2018-04-13T07:56:15.627Z,36.27
2018-04-13T07:58:19.970Z,38.07
2018-04-13T08:00:24.312Z,46.23
2018-04-13T08:02:28.633Z,51.60
2018-04-13T08:04:33.010Z,39.70
2018-04-13T08:06:37.351Z,43.67
2018-04-13T08:08:41.699Z,41.93
2018-04-13T08:10:46.063Z,45.50
2018-04-13T08:12:52.810Z,53.90
2018-04-13T08:14:57.128Z,42.80
2018-04-13T08:17:01.483Z,39.30
2018-04-13T08:19:05.809Z,38.80
2018-04-13T08:21:10.154Z,37.33
2018-04-13T08:23:16.940Z,37.17
2018-04-13T08:25:22.709Z,34.60
2018-04-13T08:27:27.057Z,34.50
2018-04-13T08:29:31.389Z,34.80
2018-04-13T08:31:35.751Z,38.17
2018-04-13T08:33:40.168Z,37.87
2018-04-13T08:35:44.526Z,38.47
2018-04-13T08:37:48.924Z,47.67
2018-04-13T08:39:53.308Z,63.97
2018-04-13T08:41:57.695Z,50.70
2018-04-13T08:44:02.038Z,27.00
2018-04-13T08:46:06.361Z,26.77
2018-04-13T08:48:10.715Z,31.87
2018-04-13T08:50:15.158Z,32.80
2018-04-13T08:52:19.377Z,27.17
2018-04-13T08:54:23.733Z,29.63
2018-04-13T08:56:28.080Z,45.93
2018-04-13T08:58:32.443Z,71.80
2018-04-13T09:00:36.758Z,31.60
2018-04-13T09:02:41.083Z,25.30
2018-04-13T09:04:45.407Z,26.57
2018-04-13T09:06:49.732Z,28.50
2018-04-13T09:08:54.096Z,28.03
2018-04-13T09:10:58.423Z,37.40
2018-04-13T09:13:02.888Z,44.20
2018-04-13T09:15:07.218Z,27.40
2018-04-13T09:17:11.551Z,24.07
2018-04-13T09:19:15.908Z,22.60
2018-04-13T09:21:20.255Z,24.03
2018-04-13T09:23:24.588Z,25.43
2018-04-13T09:25:28.977Z,24.07
2018-04-13T09:27:33.300Z,23.07
2018-04-13T09:29:37.614Z,19.87
2018-04-13T09:31:41.966Z,30.73
2018-04-13T09:33:46.291Z,23.60
2018-04-13T09:35:50.650Z,19.50
2018-04-13T09:37:54.994Z,19.10
2018-04-13T09:39:59.330Z,17.63
2018-04-13T09:42:03.655Z,22.63
2018-04-13T09:44:08.002Z,20.97
2018-04-13T09:46:12.358Z,20.50
2018-04-13T09:48:16.679Z,17.20
2018-04-13T09:50:21.028Z,17.17
2018-04-13T09:52:25.342Z,17.10
2018-04-13T09:54:29.671Z,15.37
2018-04-13T09:56:34.001Z,18.33
2018-04-13T09:58:38.324Z,16.40
2018-04-13T10:00:42.666Z,14.60
2018-04-13T10:02:47.026Z,15.60
2018-04-13T10:04:56.404Z,21.00
2018-04-13T10:07:00.732Z,13.00
2018-04-13T10:09:05.072Z,12.60
2018-04-13T10:11:09.420Z,12.90
2018-04-13T10:13:13.740Z,14.10
2018-04-13T10:15:17.903Z,13.70
2018-04-13T10:17:22.097Z,12.30
2018-04-13T10:19:26.305Z,13.00
2018-04-13T10:21:30.505Z,12.27
2018-04-13T10:23:34.818Z,10.30
2018-04-13T10:25:38.987Z,11.00
2018-04-13T10:27:43.319Z,9.97
2018-04-13T10:29:47.648Z,10.10
2018-04-13T10:31:51.961Z,9.63
2018-04-13T10:33:56.273Z,8.47
2018-04-13T10:36:00.597Z,9.40
2018-04-13T10:38:04.906Z,10.87
2018-04-13T10:40:09.287Z,10.30
2018-04-13T10:42:13.791Z,11.00
2018-04-13T10:44:18.018Z,10.00
2018-04-13T10:46:23.753Z,9.63
2018-04-13T10:48:27.932Z,11.67
2018-04-13T10:50:34.105Z,9.17
2018-04-13T10:52:38.245Z,9.47
2018-04-13T10:54:44.565Z,8.50
2018-04-13T10:56:48.726Z,9.77
2018-04-13T10:58:52.851Z,8.93
2018-04-13T11:01:01.294Z,10.80
2018-04-13T11:03:07.544Z,12.20
2018-04-13T11:05:11.825Z,10.50
2018-04-13T11:07:19.439Z,9.17
2018-04-13T11:09:25.169Z,12.97
2018-04-13T11:11:29.306Z,13.50
2018-04-13T11:13:33.412Z,9.20
2018-04-13T11:15:41.390Z,8.73
2018-04-13T11:17:49.404Z,9.40
2018-04-13T11:19:55.650Z,11.70
2018-04-13T11:22:04.925Z,7.77
2018-04-13T11:24:09.026Z,7.27
2018-04-13T11:26:15.324Z,6.80
2018-04-13T11:28:21.320Z,45.17
2018-04-13T11:30:31.630Z,28.80
2018-04-13T11:32:35.759Z,22.40
2018-04-13T11:34:39.861Z,18.37
2018-04-13T11:36:43.926Z,8.00
2018-04-13T11:38:54.094Z,6.97
2018-04-13T11:40:58.246Z,7.43
2018-04-13T11:43:02.306Z,6.40
2018-04-13T11:45:06.388Z,6.97
2018-04-13T11:47:19.111Z,6.47
2018-04-13T11:49:27.366Z,6.60
2018-04-13T11:51:31.432Z,10.10
2018-04-13T11:53:35.621Z,8.63
2018-04-13T11:55:39.858Z,6.70
2018-04-13T11:57:44.099Z,7.27
2018-04-13T11:59:48.360Z,7.47
2018-04-13T12:01:52.628Z,8.20
2018-04-13T12:03:56.957Z,7.70
2018-04-13T12:06:01.311Z,8.13
2018-04-13T12:08:05.610Z,8.27
2018-04-13T12:10:09.926Z,9.43
2018-04-13T12:12:14.354Z,18.10
2018-04-13T12:14:18.695Z,14.83
2018-04-13T12:16:23.080Z,13.67
2018-04-13T12:18:27.497Z,12.97
2018-04-13T12:20:31.812Z,12.77
2018-04-13T12:22:36.166Z,13.07
2018-04-13T12:24:40.527Z,14.60
2018-04-13T12:26:44.802Z,17.10
2018-04-13T12:28:49.194Z,18.27
2018-04-13T12:30:53.509Z,17.63
2018-04-13T12:32:57.880Z,16.77
2018-04-13T12:35:02.086Z,17.30
2018-04-13T12:37:06.564Z,15.40
2018-04-13T12:39:10.861Z,15.43
2018-04-13T12:41:15.093Z,16.67
2018-04-13T12:43:20.919Z,17.57
2018-04-13T12:45:25.192Z,20.53
2018-04-13T12:47:29.428Z,19.27
2018-04-13T12:49:33.749Z,19.07
2018-04-13T12:51:37.889Z,19.90
2018-04-13T12:53:44.078Z,20.03
2018-04-13T12:55:48.317Z,21.40
2018-04-13T12:57:56.667Z,20.17
2018-04-13T13:00:03.024Z,21.63
2018-04-13T13:02:07.293Z,20.73
2018-04-13T13:04:13.287Z,20.97
2018-04-13T13:06:19.785Z,20.77
2018-04-13T13:08:23.901Z,20.90
2018-04-13T13:10:29.986Z,21.80
2018-04-13T13:12:34.188Z,22.17
2018-04-13T13:14:38.297Z,20.97
2018-04-13T13:16:49.001Z,21.60
2018-04-13T13:18:57.417Z,22.50
2018-04-13T13:21:03.683Z,22.40
2018-04-13T13:23:09.477Z,22.07
2018-04-13T13:25:17.953Z,21.40
2018-04-13T13:27:24.206Z,21.30
2018-04-13T13:29:28.341Z,21.03
2018-04-13T13:31:36.530Z,19.67
2018-04-13T13:33:48.856Z,22.37
2018-04-13T13:35:52.927Z,21.30
2018-04-13T13:38:03.179Z,20.00
2018-04-13T13:40:11.599Z,21.67
2018-04-13T13:42:17.834Z,19.10
2018-04-13T13:44:24.039Z,19.10
2018-04-13T13:46:28.244Z,19.77
2018-04-13T13:48:34.369Z,20.30
2018-04-13T13:50:42.526Z,19.30
2018-04-13T13:52:46.718Z,20.20
2018-04-13T13:54:54.566Z,18.53
2018-04-13T13:57:00.725Z,18.30
2018-04-13T13:59:07.076Z,21.10
2018-04-13T14:01:16.789Z,20.50
2018-04-13T14:03:23.085Z,20.00
2018-04-13T14:05:31.269Z,22.00
2018-04-13T14:07:37.357Z,20.40
2018-04-13T14:09:44.866Z,21.77
2018-04-13T14:11:50.410Z,20.80
2018-04-13T14:13:54.613Z,20.80
2018-04-13T14:15:58.938Z,19.73
2018-04-13T14:18:04.187Z,22.70
2018-04-13T14:20:08.435Z,21.40
2018-04-13T14:22:12.701Z,22.37
2018-04-13T14:24:16.952Z,20.23
2018-04-13T14:26:21.266Z,21.03
2018-04-13T14:28:25.543Z,20.30
2018-04-13T14:30:32.007Z,20.70
2018-04-13T14:32:36.365Z,21.67
2018-04-13T14:34:40.877Z,21.43
2018-04-13T14:36:45.111Z,20.33
2018-04-13T14:38:49.274Z,19.97
2018-04-13T14:40:55.774Z,20.53
2018-04-13T14:43:00.004Z,19.90
2018-04-13T14:45:04.283Z,22.07
2018-04-13T14:47:08.471Z,20.63
2018-04-13T14:49:12.708Z,20.77
2018-04-13T14:51:17.149Z,20.60
2018-04-13T14:53:21.356Z,21.40
2018-04-13T14:55:25.608Z,22.13
2018-04-13T14:57:30.117Z,20.97
2018-04-13T14:59:44.777Z,21.00
2018-04-13T15:01:51.493Z,20.73
2018-04-13T15:03:55.783Z,20.70
2018-04-13T15:06:00.094Z,20.37
2018-04-13T15:08:04.335Z,22.60
2018-04-13T15:10:08.664Z,21.90
2018-04-13T15:12:13.059Z,21.40
2018-04-13T15:14:17.431Z,20.80
2018-04-13T15:16:21.754Z,20.70
2018-04-13T15:18:26.117Z,21.40
2018-04-13T15:20:30.437Z,21.40
2018-04-13T15:22:35.136Z,22.17
2018-04-13T15:24:39.506Z,21.60
2018-04-13T15:26:43.820Z,19.70
2018-04-13T15:28:48.172Z,20.90
2018-04-13T15:30:52.500Z,20.40
2018-04-13T15:32:56.840Z,21.50
2018-04-13T15:35:01.288Z,20.37
2018-04-13T15:37:05.607Z,22.13
2018-04-13T15:39:09.936Z,20.87
2018-04-13T15:41:14.260Z,22.40
2018-04-13T15:43:18.679Z,21.53
2018-04-13T15:45:23.036Z,21.93
2018-04-13T15:47:27.372Z,21.50
2018-04-13T15:49:31.734Z,21.67
2018-04-13T15:51:36.131Z,21.13
2018-04-13T15:53:40.610Z,21.77
2018-04-13T15:55:44.984Z,20.93
2018-04-13T15:57:49.284Z,21.30
2018-04-13T15:59:53.631Z,20.43
2018-04-13T16:01:57.945Z,19.47
2018-04-13T16:04:02.516Z,22.90
2018-04-13T16:06:06.900Z,19.30
2018-04-13T16:08:18.545Z,21.00
2018-04-13T16:10:23.248Z,20.80
2018-04-13T16:12:27.616Z,21.97
2018-04-13T16:14:31.968Z,21.53
2018-04-13T16:16:36.315Z,22.60
2018-04-13T16:18:40.702Z,23.27
2018-04-13T16:20:45.139Z,25.40
2018-04-13T16:22:49.461Z,28.57
2018-04-13T16:24:53.813Z,30.23
2018-04-13T16:26:58.205Z,34.30
2018-04-13T16:29:02.682Z,39.10
2018-04-13T16:31:07.240Z,29.70
2018-04-13T16:33:11.583Z,23.47
2018-04-13T16:35:15.964Z,24.07
2018-04-13T16:37:20.297Z,22.60
2018-04-13T16:39:24.629Z,24.33
2018-04-13T16:41:28.988Z,26.53
2018-04-13T16:43:33.384Z,27.83
2018-04-13T16:45:37.721Z,24.60
2018-04-13T16:47:42.063Z,23.80
2018-04-13T16:49:46.379Z,24.37
2018-04-13T16:51:50.712Z,25.63
2018-04-13T16:53:55.059Z,21.90
2018-04-13T16:55:59.420Z,22.40
2018-04-13T16:58:03.753Z,24.23
2018-04-13T17:00:08.082Z,24.23
2018-04-13T17:02:12.418Z,26.27
2018-04-13T17:04:16.762Z,27.57
2018-04-13T17:06:21.161Z,27.83
2018-04-13T17:08:25.478Z,26.77
2018-04-13T17:10:29.827Z,27.97
2018-04-13T17:12:34.167Z,28.80
2018-04-13T17:14:38.530Z,28.87
2018-04-13T17:16:42.881Z,27.33
2018-04-13T17:18:47.231Z,25.97
2018-04-13T17:20:51.555Z,24.87
2018-04-13T17:22:55.932Z,23.40
2018-04-13T17:25:00.266Z,25.50
2018-04-13T17:27:04.588Z,23.47
2018-04-13T17:29:08.983Z,24.40
2018-04-13T17:31:13.292Z,25.87
2018-04-13T17:33:17.629Z,25.00
2018-04-13T17:35:21.984Z,25.30
2018-04-13T17:37:26.309Z,26.97
2018-04-13T17:39:30.664Z,24.17
2018-04-13T17:41:35.019Z,25.07
2018-04-13T17:43:39.369Z,25.33
2018-04-13T17:45:43.711Z,25.80
2018-04-13T17:47:48.082Z,25.67
2018-04-13T17:49:52.412Z,25.40
2018-04-13T17:51:56.733Z,27.30
2018-04-13T17:54:01.146Z,25.97
2018-04-13T17:56:05.467Z,27.10
2018-04-13T17:58:09.833Z,28.07
2018-04-13T18:00:14.193Z,26.00
2018-04-13T18:02:18.537Z,28.43
2018-04-13T18:04:22.865Z,26.90
2018-04-13T18:06:27.208Z,29.87
2018-04-13T18:08:31.528Z,27.77
2018-04-13T18:10:35.892Z,29.67
2018-04-13T18:12:40.207Z,27.20
2018-04-13T18:14:44.557Z,28.70
2018-04-13T18:16:48.875Z,30.80
2018-04-13T18:18:53.192Z,30.20
2018-04-13T18:20:57.610Z,30.50
2018-04-13T18:23:01.932Z,30.50
2018-04-13T18:25:06.255Z,31.83
2018-04-13T18:27:10.585Z,30.27
2018-04-13T18:29:14.908Z,31.60
2018-04-13T18:31:19.243Z,32.20
2018-04-13T18:33:23.626Z,30.97
2018-04-13T18:35:27.929Z,31.63
2018-04-13T18:37:32.275Z,32.27
2018-04-13T18:39:36.649Z,34.87
2018-04-13T18:41:40.978Z,34.50
2018-04-13T18:43:45.332Z,34.20
2018-04-13T18:45:49.656Z,34.40
2018-04-13T18:47:53.980Z,35.80
2018-04-13T18:49:58.317Z,35.03
2018-04-13T18:52:02.694Z,36.30
2018-04-13T18:54:07.069Z,35.67
2018-04-13T18:56:11.425Z,34.33
2018-04-13T18:58:15.776Z,36.13
2018-04-13T19:00:20.092Z,33.10
2018-04-13T19:02:24.457Z,32.60
2018-04-13T19:04:28.772Z,32.40
2018-04-13T19:06:33.133Z,32.93
2018-04-13T19:08:37.490Z,31.27
2018-04-13T19:10:41.825Z,35.57
2018-04-13T19:12:46.172Z,33.87
2018-04-13T19:14:50.515Z,35.00
2018-04-13T19:16:54.864Z,34.93
2018-04-13T19:18:59.209Z,35.40
2018-04-13T19:21:03.534Z,34.57
2018-04-13T19:23:07.856Z,36.40
2018-04-13T19:25:12.190Z,34.97
2018-04-13T19:27:16.545Z,36.37
2018-04-13T19:29:20.892Z,34.03
2018-04-13T19:31:25.220Z,35.90
2018-04-13T19:33:29.612Z,34.10
2018-04-13T19:35:33.934Z,34.07
2018-04-13T19:37:38.292Z,34.53
2018-04-13T19:39:42.632Z,35.87
2018-04-13T19:41:47.001Z,34.53
2018-04-13T19:43:51.340Z,33.27
2018-04-13T19:45:55.681Z,35.70
2018-04-13T19:48:00.034Z,33.30
2018-04-13T19:50:04.370Z,33.47
2018-04-13T19:54:41.367Z,33.50
2018-04-13T19:56:45.723Z,33.47
2018-04-13T19:58:50.058Z,33.30
2018-04-13T20:00:54.404Z,34.27
2018-04-13T20:02:58.764Z,32.53
2018-04-13T20:05:03.153Z,35.33
2018-04-13T20:07:07.476Z,32.57
2018-04-13T20:09:11.830Z,32.73
2018-04-13T20:11:16.180Z,31.87
2018-04-13T20:13:20.523Z,33.50
2018-04-13T20:15:24.876Z,34.80
2018-04-13T20:17:29.211Z,34.37
2018-04-13T20:19:33.569Z,34.00
2018-04-13T20:21:37.978Z,33.90
2018-04-13T20:23:42.296Z,33.63
2018-04-13T20:25:46.668Z,34.60
2018-04-13T20:27:51.015Z,32.67
2018-04-13T20:29:55.361Z,36.20
2018-04-13T20:31:59.714Z,36.40
2018-04-13T20:34:04.037Z,36.33
2018-04-13T20:36:08.409Z,34.47
2018-04-13T20:38:12.723Z,34.70
2018-04-13T20:40:17.058Z,36.00
2018-04-13T20:42:21.413Z,36.63
2018-04-13T20:44:25.738Z,33.50
2018-04-13T20:46:30.088Z,35.80
2018-04-13T20:48:34.424Z,36.33
2018-04-13T20:50:38.770Z,37.07
2018-04-13T20:52:43.130Z,38.43
2018-04-13T20:54:47.505Z,37.83
2018-04-13T20:56:51.835Z,36.50
2018-04-13T20:58:56.166Z,37.80
2018-04-13T21:01:00.421Z,38.10
2018-04-13T21:03:04.733Z,36.80
2018-04-13T21:05:09.078Z,37.87
2018-04-13T21:07:13.398Z,40.33
2018-04-13T21:09:17.615Z,40.77
2018-04-13T21:11:21.890Z,43.00
2018-04-13T21:13:26.147Z,42.53
2018-04-13T21:15:30.326Z,41.70
2018-04-13T21:17:34.578Z,42.43
2018-04-13T21:19:38.852Z,42.77
2018-04-13T21:21:43.194Z,40.97
2018-04-13T21:23:47.433Z,42.50
2018-04-13T21:25:51.753Z,40.83
2018-04-13T21:27:57.007Z,38.63
2018-04-13T21:30:01.465Z,40.90
2018-04-13T21:32:05.750Z,41.47
2018-04-13T21:34:10.000Z,41.83
2018-04-13T21:36:14.284Z,41.20
2018-04-13T21:38:18.510Z,39.07
2018-04-13T21:40:22.778Z,38.33
2018-04-13T21:42:27.065Z,37.93
2018-04-13T21:44:31.312Z,36.03
2018-04-13T21:46:35.623Z,40.57
2018-04-13T21:48:39.874Z,39.13
2018-04-13T21:50:44.280Z,39.80
2018-04-13T21:52:48.610Z,38.90
2018-04-13T21:54:53.227Z,39.73
2018-04-13T21:56:57.580Z,40.57
2018-04-13T21:59:01.938Z,41.23
2018-04-13T22:01:06.265Z,40.63
2018-04-13T22:03:10.643Z,41.10
2018-04-13T22:05:17.041Z,40.70
2018-04-13T22:07:21.397Z,41.40
2018-04-13T22:09:25.767Z,39.73
2018-04-13T22:11:31.094Z,41.37
2018-04-13T22:13:35.393Z,41.70
2018-04-13T22:15:39.781Z,42.10
2018-04-13T22:17:44.405Z,38.23
2018-04-13T22:19:49.181Z,38.70
2018-04-13T22:21:55.521Z,40.20
2018-04-13T22:24:00.036Z,39.00
2018-04-13T22:26:04.389Z,37.60
2018-04-13T22:28:08.799Z,40.83
2018-04-13T22:30:13.445Z,38.47
2018-04-13T22:32:18.037Z,38.57
2018-04-13T22:34:22.541Z,39.33
2018-04-13T22:36:26.899Z,38.20
2018-04-13T22:38:31.271Z,40.57
2018-04-13T22:40:35.642Z,39.80
2018-04-13T22:42:39.970Z,37.60
2018-04-13T22:44:44.385Z,38.33
2018-04-13T22:46:48.739Z,42.07
2018-04-13T22:48:53.166Z,39.87
2018-04-13T22:50:57.514Z,39.23
2018-04-13T22:53:01.856Z,39.50
2018-04-13T22:55:06.179Z,41.13
2018-04-13T22:57:10.538Z,38.90
2018-04-13T22:59:14.874Z,40.43
2018-04-13T23:01:19.229Z,39.50
2018-04-13T23:03:23.597Z,38.97
2018-04-13T23:05:28.112Z,40.43
2018-04-13T23:07:32.438Z,39.33
2018-04-13T23:09:36.789Z,39.00
2018-04-13T23:11:41.133Z,40.97
2018-04-13T23:13:45.451Z,42.27
2018-04-13T23:15:49.811Z,42.80
2018-04-13T23:17:54.129Z,41.87
2018-04-13T23:19:59.773Z,41.60
2018-04-13T23:22:04.108Z,40.43
2018-04-13T23:24:08.407Z,41.30
2018-04-13T23:26:12.736Z,40.23
2018-04-13T23:28:17.427Z,41.87
2018-04-13T23:30:21.706Z,44.37
2018-04-13T23:32:26.000Z,41.17
2018-04-13T23:34:30.329Z,42.37
2018-04-13T23:36:34.685Z,40.47
2018-04-13T23:38:39.015Z,41.33
2018-04-13T23:40:43.307Z,40.90
2018-04-13T23:42:47.614Z,39.80
2018-04-13T23:44:52.025Z,40.30
2018-04-13T23:46:56.245Z,40.37
2018-04-13T23:49:00.537Z,41.47
2018-04-13T23:51:04.795Z,42.00
2018-04-13T23:53:09.077Z,41.30
2018-04-13T23:55:13.291Z,40.97
2018-04-13T23:57:17.526Z,39.13
2018-04-13T23:59:21.801Z,40.10
